Red Moon — D5EP8 — position and weather

sailwx.info

Track history (hours):
 
Tides and Currents Weather Stations Pressure Air Temp Water Temp Dewpoint Dewpoint Depression Visibility Wind Speed Wind Dir Waves Ship Positions

Red Moon

Last reported at 2018-Jun-22 16:51 UTC. Time now 2018-Jun-23 19:53 UTC.
Position N 46°50' W 003°11'.

Length 274 m; draft 9.3 m.

Type: Tanker. MMSI: 636016129.

Date/timePositionNaut miles runAvg speedWind from/ knotsBaromVisibWave heightAir tempDewpointWater temp
2018-Jun-22 16:51N 46°50' W 003°11'1115.2
2018-Jun-22 16:09N 46°55' W 002°57'215.8
2018-Jun-22 16:00N 46°56' W 002°54'815.2
2018-Jun-22 15:30N 46°59' W 002°44'815.3
2018-Jun-22 15:00N 47°02' W 002°34'815.3
2018-Jun-22 14:30N 47°06' W 002°24'4 8.9
2018-Jun-22 14:00N 47°09' W 002°20'713.6
2018-Jun-22 13:30N 47°15' W 002°14'510.9
2018-Jun-22 13:00N 47°18' W 002°07'1 2.0
2018-Jun-22 12:29N 47°18' W 002°06'0 0.0
2018-Jun-22 11:56N 47°18' W 002°06'0 0.0
2018-Jun-22 11:29N 47°18' W 002°06'0 0.0
2018-Jun-22 10:56N 47°18' W 002°06'0 0.0
2018-Jun-22 10:26N 47°18' W 002°06'0 0.0
2018-Jun-22 09:59N 47°18' W 002°06'0 0.0
2018-Jun-22 08:47N 47°18' W 002°06'0 0.0
2018-Jun-22 08:29N 47°18' W 002°06'0 0.0
2018-Jun-22 07:59N 47°18' W 002°06'0 0.0
2018-Jun-22 07:29N 47°18' W 002°06'0 0.0
2018-Jun-22 06:59N 47°18' W 002°06'0 0.0
2018-Jun-22 06:29N 47°18' W 002°06'0 0.0
2018-Jun-22 05:59N 47°18' W 002°06'0 0.0
2018-Jun-22 05:29N 47°18' W 002°06'0 0.0
2018-Jun-22 04:56N 47°18' W 002°06'0 0.0
2018-Jun-22 04:29N 47°18' W 002°06'0 0.0
2018-Jun-22 03:59N 47°18' W 002°06'0 0.0
2018-Jun-22 03:26N 47°18' W 002°06'0 0.0
2018-Jun-22 02:56N 47°18' W 002°06'0 0.0
2018-Jun-22 02:29N 47°18' W 002°06'0 0.0
2018-Jun-22 01:59N 47°18' W 002°06'0 0.0
2018-Jun-22 01:29N 47°18' W 002°06'0 0.0
2018-Jun-22 00:59N 47°18' W 002°06'0 0.0
2018-Jun-22 00:29N 47°18' W 002°06'0 0.0
2018-Jun-21 23:59N 47°18' W 002°06'0 0.0
2018-Jun-21 23:29N 47°18' W 002°06'0 0.0
2018-Jun-21 22:53N 47°18' W 002°06'0 0.0
2018-Jun-21 22:29N 47°18' W 002°06'0 0.0
2018-Jun-21 21:59N 47°18' W 002°06'0 0.0
2018-Jun-21 21:29N 47°18' W 002°06'0 0.0
2018-Jun-21 20:59N 47°18' W 002°06'0 0.0
2018-Jun-21 20:29N 47°18' W 002°06'0 0.0
2018-Jun-21 19:59N 47°18' W 002°06'0 0.0
2018-Jun-21 19:29N 47°18' W 002°06'0 0.0
2018-Jun-21 18:59N 47°18' W 002°06'0 0.0
2018-Jun-21 18:29N 47°18' W 002°06'0 0.0
2018-Jun-21 17:59N 47°18' W 002°06'0 0.0
2018-Jun-21 17:29N 47°18' W 002°06'0 0.0
2018-Jun-21 16:59N 47°18' W 002°06'0 0.0
2018-Jun-21 16:29N 47°18' W 002°06'0 0.0
2018-Jun-21 15:59N 47°18' W 002°06'0 0.0
2018-Jun-21 15:29N 47°18' W 002°06'0 0.0
2018-Jun-21 14:59N 47°18' W 002°06'0 0.0
2018-Jun-21 14:26N 47°18' W 002°06'0 0.0
2018-Jun-21 13:59N 47°18' W 002°06'0 0.0
2018-Jun-21 13:29N 47°18' W 002°06'0 0.0
2018-Jun-21 12:56N 47°18' W 002°06'0 0.0
2018-Jun-21 12:29N 47°18' W 002°06'0 0.0
2018-Jun-21 11:56N 47°18' W 002°06'0 0.0
2018-Jun-21 11:29N 47°18' W 002°06'0 0.0
2018-Jun-21 10:59N 47°18' W 002°06'0 0.0
2018-Jun-21 10:29N 47°18' W 002°06'0 0.0
2018-Jun-21 10:00N 47°18' W 002°06'1 1.0
2018-Jun-21 09:30N 47°18' W 002°07'4 7.0
2018-Jun-21 09:00N 47°16' W 002°11'612.7
2018-Jun-21 08:30N 47°12' W 002°17'611.6
2018-Jun-21 08:00N 47°07' W 002°22'3 6.9
2018-Jun-21 07:30N 47°07' W 002°27'1 2.5
2018-Jun-21 06:59N 47°07' W 002°29'0 0.0
2018-Jun-21 06:29N 47°07' W 002°29'0 0.1
2018-Jun-21 05:59N 47°07' W 002°29'0 0.1
2018-Jun-21 05:29N 47°07' W 002°29'0 0.0
2018-Jun-21 05:00N 47°07' W 002°29'0 0.1
2018-Jun-21 04:29N 47°07' W 002°29'0 0.1
2018-Jun-21 04:00N 47°07' W 002°29'0 0.0
2018-Jun-21 03:30N 47°07' W 002°29'0 0.0
2018-Jun-21 02:59N 47°07' W 002°29'0 0.0
2018-Jun-21 02:30N 47°07' W 002°29'0 0.0
2018-Jun-21 01:59N 47°07' W 002°29'0 0.0
2018-Jun-21 01:30N 47°07' W 002°29'0 0.0
2018-Jun-21 01:00N 47°07' W 002°29'0 0.0
2018-Jun-21 00:29N 47°07' W 002°29'0 0.0
2018-Jun-20 23:59N 47°07' W 002°29'0 0.1
2018-Jun-20 23:30N 47°07' W 002°29'0 0.1
2018-Jun-20 23:00N 47°07' W 002°29'0 0.2
2018-Jun-20 22:30N 47°07' W 002°29'0 0.0
2018-Jun-20 21:59N 47°07' W 002°29'0 0.1
2018-Jun-20 21:29N 47°07' W 002°29'0 0.1
2018-Jun-20 20:57N 47°07' W 002°29'0 0.1
2018-Jun-20 20:29N 47°07' W 002°29'0 0.1
2018-Jun-20 19:59N 47°07' W 002°29'0 0.1
2018-Jun-20 19:30N 47°07' W 002°29'0 0.0
2018-Jun-20 18:59N 47°07' W 002°29'0 0.0
2018-Jun-20 18:29N 47°07' W 002°29'0 0.1
2018-Jun-20 18:00N 47°07' W 002°29'0 0.0
2018-Jun-20 17:30N 47°07' W 002°29'0 0.0
2018-Jun-20 16:54N 47°07' W 002°29'0 0.3
2018-Jun-20 16:23N 47°07' W 002°29'0 0.3
2018-Jun-20 15:59N 47°07' W 002°29'0 0.1
2018-Jun-20 14:47N 47°07' W 002°29'0 0.1
2018-Jun-20 14:30N 47°07' W 002°29'0 0.0
2018-Jun-20 14:00N 47°07' W 002°29'0 0.0
2018-Jun-20 13:30N 47°07' W 002°29'0 0.0
2018-Jun-20 12:56N 47°07' W 002°29'0 0.0
2018-Jun-20 12:26N 47°07' W 002°29'0 0.1
2018-Jun-20 11:59N 47°07' W 002°29'0 0.1
2018-Jun-20 11:29N 47°07' W 002°29'0 0.0
2018-Jun-20 11:00N 47°07' W 002°29'0 0.1
2018-Jun-20 10:30N 47°07' W 002°29'0 0.1
2018-Jun-20 09:59N 47°07' W 002°29'0 0.1
2018-Jun-20 09:29N 47°07' W 002°29'0 0.0
2018-Jun-20 09:00N 47°07' W 002°29'0 0.0
2018-Jun-20 08:29N 47°07' W 002°29'0 0.1
2018-Jun-20 08:00N 47°07' W 002°29'0 0.2
2018-Jun-20 07:29N 47°07' W 002°29'0 0.1
2018-Jun-20 06:59N 47°07' W 002°29'0 0.1
2018-Jun-20 06:29N 47°07' W 002°29'0 0.0
2018-Jun-20 06:00N 47°07' W 002°29'0 0.0
2018-Jun-20 05:29N 47°07' W 002°29'0 0.1
2018-Jun-20 04:57N 47°07' W 002°29'0 0.2
2018-Jun-20 04:29N 47°07' W 002°29'0 0.3
2018-Jun-20 03:56N 47°07' W 002°29'0 0.2
2018-Jun-20 03:29N 47°07' W 002°29'0 0.1
2018-Jun-20 02:59N 47°07' W 002°29'0 0.1
2018-Jun-20 02:30N 47°07' W 002°29'0 0.0
2018-Jun-20 01:59N 47°07' W 002°29'0 0.0
2018-Jun-20 01:30N 47°07' W 002°29'0 0.0
2018-Jun-20 01:00N 47°07' W 002°29'0 0.0
2018-Jun-20 00:29N 47°07' W 002°29'0 0.0
2018-Jun-20 00:00N 47°07' W 002°29'0 0.1
2018-Jun-19 23:27N 47°07' W 002°29'0 0.0
2018-Jun-19 23:00N 47°07' W 002°29'0 0.0
2018-Jun-19 22:30N 47°07' W 002°29'0 0.1
2018-Jun-19 21:59N 47°07' W 002°29'0 0.2
2018-Jun-19 21:30N 47°07' W 002°29'0 0.0
2018-Jun-19 20:56N 47°07' W 002°29'0 0.0
2018-Jun-19 20:26N 47°07' W 002°29'0 0.0
2018-Jun-19 19:59N 47°07' W 002°29'0 0.2
2018-Jun-19 19:30N 47°07' W 002°29'0 0.2
2018-Jun-19 18:56N 47°07' W 002°29'0 0.1
2018-Jun-19 18:29N 47°07' W 002°29'0 0.1
2018-Jun-19 18:00N 47°07' W 002°29'0 0.0
2018-Jun-19 17:30N 47°07' W 002°29'0 0.0
2018-Jun-19 17:00N 47°07' W 002°29'0 0.0
2018-Jun-19 16:29N 47°07' W 002°29'0 0.0
2018-Jun-19 16:00N 47°07' W 002°29'0 0.1
2018-Jun-19 15:24N 47°07' W 002°29'0 0.4
2018-Jun-19 14:59N 47°07' W 002°29'0 0.1
2018-Jun-19 14:27N 47°07' W 002°29'0 0.1
2018-Jun-19 13:59N 47°07' W 002°29'0 0.0
2018-Jun-19 13:26N 47°07' W 002°29'0 0.0
2018-Jun-19 13:00N 47°07' W 002°29'0 0.0
2018-Jun-19 12:29N 47°07' W 002°29'0 0.0
2018-Jun-19 11:59N 47°07' W 002°29'0 0.0
2018-Jun-19 11:30N 47°07' W 002°29'0 0.0
2018-Jun-19 11:00N 47°07' W 002°29'0 0.1
2018-Jun-19 10:29N 47°07' W 002°29'0 0.2
2018-Jun-19 10:00N 47°07' W 002°29'0 0.1
2018-Jun-19 09:30N 47°07' W 002°29'0 0.1
2018-Jun-19 08:59N 47°07' W 002°29'0 0.0
2018-Jun-19 08:29N 47°07' W 002°29'0 0.1
2018-Jun-19 07:59N 47°07' W 002°29'0 0.1
2018-Jun-19 07:29N 47°07' W 002°29'0 0.1
2018-Jun-19 06:59N 47°07' W 002°29'0 0.1
2018-Jun-19 06:29N 47°07' W 002°29'0 0.1
2018-Jun-19 05:53N 47°07' W 002°29'0 0.1
2018-Jun-19 05:30N 47°07' W 002°29'0 0.0
2018-Jun-19 04:59N 47°07' W 002°29'0 0.1
2018-Jun-19 04:29N 47°07' W 002°29'0 0.1
2018-Jun-19 03:59N 47°07' W 002°29'0 0.2
2018-Jun-19 03:29N 47°07' W 002°29'0 0.4
2018-Jun-19 02:59N 47°07' W 002°29'0 0.2
2018-Jun-19 02:29N 47°07' W 002°29'0 0.1
2018-Jun-19 01:59N 47°07' W 002°29'0 0.0
2018-Jun-19 01:29N 47°07' W 002°29'0 0.1
2018-Jun-19 00:56N 47°07' W 002°29'0 0.0
2018-Jun-19 00:29N 47°07' W 002°29'0 0.0
2018-Jun-18 23:59N 47°07' W 002°29'0 0.0
2018-Jun-18 23:29N 47°07' W 002°29'0 0.0
2018-Jun-18 22:57N 47°07' W 002°29'0 0.0
2018-Jun-18 22:29N 47°07' W 002°29'0 0.1
2018-Jun-18 21:59N 47°07' W 002°29'0 0.1
2018-Jun-18 21:30N 47°07' W 002°29'0 0.1
2018-Jun-18 20:59N 47°07' W 002°29'0 0.2
2018-Jun-18 20:27N 47°07' W 002°29'0 0.0
2018-Jun-18 20:00N 47°07' W 002°29'0 0.1
2018-Jun-18 19:30N 47°07' W 002°29'0 0.1
2018-Jun-18 19:00N 47°07' W 002°29'0 0.1
2018-Jun-18 18:30N 47°07' W 002°29'0 0.0
2018-Jun-18 18:00N 47°07' W 002°29'0 0.1
2018-Jun-18 17:30N 47°07' W 002°29'0 0.0
2018-Jun-18 17:00N 47°07' W 002°29'0 0.1
2018-Jun-18 16:30N 47°07' W 002°29'0 0.0
2018-Jun-18 16:00N 47°07' W 002°29'0 0.0
2018-Jun-18 15:30N 47°07' W 002°29'0 0.0
2018-Jun-18 14:59N 47°07' W 002°29'0 0.1
2018-Jun-18 14:29N 47°07' W 002°29'0 0.4
2018-Jun-18 13:59N 47°07' W 002°29'0 0.2
2018-Jun-18 13:20N 47°07' W 002°29'0 0.1
2018-Jun-18 12:56N 47°07' W 002°29'0 0.1
2018-Jun-18 12:29N 47°07' W 002°29'0 0.0
2018-Jun-18 12:00N 47°07' W 002°29'0 0.1
2018-Jun-18 11:21N 47°07' W 002°29'0 0.1
2018-Jun-18 10:59N 47°07' W 002°29'0 0.0
2018-Jun-18 10:27N 47°07' W 002°29'0 0.0
2018-Jun-18 10:00N 47°07' W 002°29'0 0.0
2018-Jun-18 09:29N 47°07' W 002°29'0 0.1
2018-Jun-18 08:59N 47°07' W 002°29'0 0.1
2018-Jun-18 08:30N 47°07' W 002°29'0 0.2
2018-Jun-18 08:00N 47°07' W 002°29'0 0.1
2018-Jun-18 07:29N 47°07' W 002°29'0 0.1
2018-Jun-18 07:00N 47°07' W 002°29'0 0.1
2018-Jun-18 06:29N 47°07' W 002°29'0 0.1
2018-Jun-18 06:00N 47°07' W 002°29'0 0.0
2018-Jun-18 05:29N 47°07' W 002°29'0 0.1
2018-Jun-18 04:50N 47°07' W 002°29'0 0.0
2018-Jun-18 04:27N 47°07' W 002°29'0 0.1
2018-Jun-18 04:00N 47°07' W 002°29'0 0.0
2018-Jun-18 03:27N 47°07' W 002°29'0 0.0
2018-Jun-18 03:00N 47°07' W 002°29'0 0.1
2018-Jun-18 02:26N 47°07' W 002°29'0 0.1
2018-Jun-18 01:59N 47°07' W 002°29'0 0.4
2018-Jun-18 01:29N 47°07' W 002°29'0 0.2
2018-Jun-18 00:59N 47°07' W 002°29'0 0.1
2018-Jun-18 00:29N 47°07' W 002°29'0 0.1
2018-Jun-17 23:59N 47°07' W 002°29'0 0.0
2018-Jun-17 23:29N 47°07' W 002°29'0 0.0
2018-Jun-17 22:59N 47°07' W 002°29'0 0.2
2018-Jun-17 22:30N 47°07' W 002°29'1 1.1
2018-Jun-17 22:01N 47°06' W 002°29'1 2.8
2018-Jun-17 21:31N 47°05' W 002°29'2 3.4
2018-Jun-17 21:00N 47°03' W 002°30'510.1
2018-Jun-17 20:31N 47°00' W 002°35'612.0
2018-Jun-17 20:01N 46°57' W 002°43'812.2
2018-Jun-17 19:21N 46°54' W 002°54'412.0
2018-Jun-17 19:00N 46°52' W 002°59'1012.2
2018-Jun-17 18:12N 46°49' W 003°12'412.6
2018-Jun-17 17:53N 46°49' W 003°18'712.8
2018-Jun-17 17:18N 46°49' W 003°29'412.9
2018-Jun-17 17:00N 46°50' W 003°35'712.8
2018-Jun-17 16:29N 46°50' W 003°44'712.5
2018-Jun-17 15:58N 46°51' W 003°54'1212.7
2018-Jun-17 15:03N 46°52' W 004°11'113.1
2018-Jun-17 15:00N 46°52' W 004°12'2912.3
2018-Jun-17 12:41N 46°56' W 004°53'121 9.8
2018-Jun-17 00:19N 48°51' W 005°49'1812.0
2018-Jun-16 22:49N 49°02' W 005°27'410.4
2018-Jun-16 22:23N 49°04' W 005°21'14 8.1
2018-Jun-16 20:43N 49°11' W 005°04'24 9.6
2018-Jun-16 18:15N 49°23' W 004°32'2 9.9
2018-Jun-16 18:00N 49°24' W 004°29'1110.5
2018-Jun-16 16:59N 49°30' W 004°15'611.3
2018-Jun-16 16:29N 49°32' W 004°07'611.9
2018-Jun-16 16:00N 49°35' W 003°59'612.6
2018-Jun-16 15:29N 49°39' W 003°51'612.8
2018-Jun-16 15:00N 49°43' W 003°44'713.4
2018-Jun-16 14:30N 49°46' W 003°35'713.0
2018-Jun-16 14:00N 49°49' W 003°26'612.7
2018-Jun-16 13:30N 49°53' W 003°18'612.4
2018-Jun-16 13:00N 49°55' W 003°09'612.0
2018-Jun-16 12:30N 49°58' W 003°00'611.3
2018-Jun-16 12:00N 49°59' W 002°52'510.8
2018-Jun-16 11:30N 50°01' W 002°44'510.3
2018-Jun-16 11:00N 50°02' W 002°36'5 9.4
2018-Jun-16 10:27N 50°04' W 002°28'21 8.4
2018-Jun-16 07:57N 50°09' W 001°57'4 9.4
2018-Jun-16 07:30N 50°10' W 001°50'1111.0
2018-Jun-16 06:30N 50°13' W 001°34'913.0
2018-Jun-16 05:49N 50°16' W 001°20'1715.2
2018-Jun-16 04:41N 50°20' W 000°54'315.8
2018-Jun-16 04:30N 50°21' W 000°50'815.6
2018-Jun-16 04:00N 50°23' W 000°38'1015.2
2018-Jun-16 03:21N 50°26' W 000°23'814.4
2018-Jun-16 02:47N 50°28' W 000°11'614.0
2018-Jun-16 02:23N 50°29' W 000°02'613.7
2018-Jun-16 01:56N 50°30' E 000°07'613.0
2018-Jun-16 01:30N 50°33' E 000°15'612.7
2018-Jun-16 01:00N 50°34' E 000°25'612.2
2018-Jun-16 00:30N 50°36' E 000°34'611.7
2018-Jun-16 00:00N 50°39' E 000°42'611.5
2018-Jun-15 23:31N 50°42' E 000°50'510.8
2018-Jun-15 23:01N 50°46' E 000°56'510.9
2018-Jun-15 22:31N 50°50' E 001°02'611.4
2018-Jun-15 22:01N 50°54' E 001°08'612.7
2018-Jun-15 21:31N 50°58' E 001°15'714.1
2018-Jun-15 21:00N 51°03' E 001°24'715.0
2018-Jun-15 20:31N 51°07' E 001°34'714.7
2018-Jun-15 20:01N 51°12' E 001°42'713.7
2018-Jun-15 19:30N 51°18' E 001°48'713.3
2018-Jun-15 19:00N 51°23' E 001°54'713.2
2018-Jun-15 18:30N 51°29' E 001°60'612.8
2018-Jun-15 18:00N 51°34' E 002°06'612.5
2018-Jun-15 17:30N 51°38' E 002°13'612.2
2018-Jun-15 17:00N 51°43' E 002°20'611.7
2018-Jun-15 16:30N 51°47' E 002°26'611.5
2018-Jun-15 16:00N 51°51' E 002°32'611.1
2018-Jun-15 15:30N 51°56' E 002°38'510.6
2018-Jun-15 15:00N 51°59' E 002°44'510.4
2018-Jun-15 14:30N 52°02' E 002°51'611.3
2018-Jun-15 14:00N 52°03' E 003°00'611.5
2018-Jun-15 13:30N 52°04' E 003°09'611.9
2018-Jun-15 13:00N 52°04' E 003°19'611.9
2018-Jun-15 12:30N 52°04' E 003°29'713.5
2018-Jun-15 12:00N 52°04' E 003°40'713.7
2018-Jun-15 11:30N 52°02' E 003°51'510.3
2018-Jun-15 11:00N 52°01' E 003°59'510.2
2018-Jun-15 10:30N 51°58' E 004°05'1 1.3
2018-Jun-15 09:59N 51°58' E 004°04'0 0.0
2018-Jun-15 09:29N 51°58' E 004°04'0 0.0
2018-Jun-15 08:59N 51°58' E 004°04'0 0.0
2018-Jun-15 08:29N 51°58' E 004°04'0 0.0
2018-Jun-15 07:59N 51°58' E 004°04'0 0.0
2018-Jun-15 07:29N 51°58' E 004°04'0 0.0
2018-Jun-15 06:59N 51°58' E 004°04'0 0.0
2018-Jun-15 06:29N 51°58' E 004°04'0 0.0
2018-Jun-15 05:59N 51°58' E 004°04'0 0.0
2018-Jun-15 05:29N 51°58' E 004°04'0 0.0
2018-Jun-15 04:59N 51°58' E 004°04'0 0.0
2018-Jun-15 04:29N 51°58' E 004°04'0 0.0
2018-Jun-15 03:59N 51°58' E 004°04'0 0.0
2018-Jun-15 03:29N 51°58' E 004°04'0 0.0
2018-Jun-15 02:59N 51°58' E 004°04'0 0.0
2018-Jun-15 02:29N 51°58' E 004°04'0 0.0
2018-Jun-15 01:59N 51°58' E 004°04'0 0.0
2018-Jun-15 01:29N 51°58' E 004°04'0 0.0
2018-Jun-15 00:59N 51°58' E 004°04'0 0.0
2018-Jun-15 00:29N 51°58' E 004°04'0 0.0
2018-Jun-14 23:59N 51°58' E 004°04'0 0.0
2018-Jun-14 23:29N 51°58' E 004°04'0 0.0
2018-Jun-14 22:59N 51°58' E 004°04'0 0.0
2018-Jun-14 22:29N 51°58' E 004°04'0 0.0
2018-Jun-14 21:59N 51°58' E 004°04'0 0.0
2018-Jun-14 21:29N 51°58' E 004°04'0 0.0
2018-Jun-14 20:59N 51°58' E 004°04'0 0.0
2018-Jun-14 20:29N 51°58' E 004°04'0 0.0
2018-Jun-14 19:59N 51°58' E 004°04'0 0.0
2018-Jun-14 19:29N 51°58' E 004°04'0 0.0
2018-Jun-14 18:59N 51°58' E 004°04'0 0.0
2018-Jun-14 18:29N 51°58' E 004°04'0 0.0
2018-Jun-14 17:59N 51°58' E 004°04'0 0.0
2018-Jun-14 17:29N 51°58' E 004°04'0 0.0
2018-Jun-14 16:59N 51°58' E 004°04'0 0.0
2018-Jun-14 16:30N 51°58' E 004°04'1 1.2
2018-Jun-14 16:01N 51°58' E 004°05'2 3.3
2018-Jun-14 15:30N 51°58' E 004°08'3 5.1
2018-Jun-14 15:01N 51°56' E 004°11'1 2.5
2018-Jun-14 14:30N 51°55' E 004°12'0 0.0
2018-Jun-14 14:00N 51°55' E 004°12'0 0.0
2018-Jun-14 13:30N 51°55' E 004°12'0 0.0
2018-Jun-14 12:57N 51°55' E 004°12'0 0.0
2018-Jun-14 12:27N 51°55' E 004°12'0 0.0
2018-Jun-14 12:00N 51°55' E 004°12'0 0.0
2018-Jun-14 11:30N 51°55' E 004°12'0 0.0
2018-Jun-14 11:00N 51°55' E 004°12'0 0.0
2018-Jun-14 10:30N 51°55' E 004°12'0 0.0
2018-Jun-14 09:57N 51°55' E 004°12'0 0.0
2018-Jun-14 09:27N 51°55' E 004°12'0 0.0
2018-Jun-14 08:57N 51°55' E 004°12'0 0.0
2018-Jun-14 08:27N 51°55' E 004°12'0 0.0
2018-Jun-14 08:00N 51°55' E 004°12'0 0.0
2018-Jun-14 07:30N 51°55' E 004°12'0 0.0
2018-Jun-14 07:00N 51°55' E 004°12'0 0.0
2018-Jun-14 06:30N 51°55' E 004°12'0 0.0
2018-Jun-14 05:57N 51°55' E 004°12'0 0.0
2018-Jun-14 05:27N 51°55' E 004°12'0 0.0
2018-Jun-14 05:00N 51°55' E 004°12'0 0.0
2018-Jun-14 04:30N 51°55' E 004°12'0 0.0
2018-Jun-14 04:00N 51°55' E 004°12'0 0.0
2018-Jun-14 03:30N 51°55' E 004°12'0 0.0
2018-Jun-14 03:00N 51°55' E 004°12'0 0.0
2018-Jun-14 02:24N 51°55' E 004°12'0 0.0
2018-Jun-14 02:00N 51°55' E 004°12'0 0.0
2018-Jun-14 01:30N 51°55' E 004°12'0 0.0
2018-Jun-14 01:00N 51°55' E 004°12'0 0.0
2018-Jun-14 00:27N 51°55' E 004°12'0 0.0
2018-Jun-14 00:00N 51°55' E 004°12'0 0.0
2018-Jun-13 23:30N 51°55' E 004°12'0 0.0
2018-Jun-13 23:00N 51°55' E 004°12'0 0.0
2018-Jun-13 22:30N 51°55' E 004°12'0 0.0
2018-Jun-13 21:58N 51°55' E 004°12'0 0.0
2018-Jun-13 21:27N 51°55' E 004°12'0 0.0
2018-Jun-13 21:00N 51°55' E 004°12'0 0.0
2018-Jun-13 20:24N 51°55' E 004°12'0 0.0
2018-Jun-13 20:00N 51°55' E 004°12'0 0.0
2018-Jun-13 19:30N 51°55' E 004°12'0 0.0
2018-Jun-13 19:00N 51°55' E 004°12'0 0.0
2018-Jun-13 18:30N 51°55' E 004°12'0 0.0
2018-Jun-13 18:00N 51°55' E 004°12'0 0.0
2018-Jun-13 17:30N 51°55' E 004°12'0 0.0
2018-Jun-13 17:00N 51°55' E 004°12'0 0.0
2018-Jun-13 16:30N 51°55' E 004°12'0 0.0
2018-Jun-13 15:57N 51°55' E 004°12'0 0.0
2018-Jun-13 15:30N 51°55' E 004°12'0 0.0
2018-Jun-13 15:00N 51°55' E 004°12'0 0.0
2018-Jun-13 14:27N 51°55' E 004°12'0 0.0
2018-Jun-13 13:57N 51°55' E 004°12'0 0.0
2018-Jun-13 13:27N 51°55' E 004°12'0 0.0
2018-Jun-13 12:51N 51°55' E 004°12'0 0.0
2018-Jun-13 12:27N 51°55' E 004°12'0 0.0
2018-Jun-13 12:00N 51°55' E 004°12'0 0.0
2018-Jun-13 11:30N 51°55' E 004°12'0 0.0
2018-Jun-13 11:00N 51°55' E 004°12'0 0.0
2018-Jun-13 10:30N 51°55' E 004°12'0 0.0
2018-Jun-13 10:00N 51°55' E 004°12'0 0.0
2018-Jun-13 09:24N 51°55' E 004°12'0 0.0
2018-Jun-13 09:00N 51°55' E 004°12'0 0.0
2018-Jun-13 08:21N 51°55' E 004°12'0 0.0
2018-Jun-13 07:59N 51°55' E 004°12'0 0.0
2018-Jun-13 07:28N 51°55' E 004°12'0 0.0
2018-Jun-13 07:00N 51°55' E 004°12'0 0.9
2018-Jun-13 06:30N 51°56' E 004°12'2 4.4
2018-Jun-13 06:00N 51°57' E 004°09'3 5.8
2018-Jun-13 05:30N 51°59' E 004°05'3 6.4
2018-Jun-13 05:00N 51°60' E 004°00'510.3
2018-Jun-13 04:30N 52°02' E 003°53'510.5
2018-Jun-13 04:00N 52°01' E 003°44'3 6.6
2018-Jun-13 03:30N 52°01' E 003°39'4 7.3
2018-Jun-13 03:00N 51°58' E 003°35'4 7.1
2018-Jun-13 02:30N 51°57' E 003°30'4 7.3
2018-Jun-13 01:59N 51°56' E 003°24'5 9.2
2018-Jun-13 01:26N 51°55' E 003°16'4 9.2
2018-Jun-13 01:00N 51°54' E 003°10'5 9.4
2018-Jun-13 00:28N 51°52' E 003°02'810.9
2018-Jun-12 23:47N 51°49' E 002°51'911.3
2018-Jun-12 23:00N 51°46' E 002°38'611.4
2018-Jun-12 22:30N 51°42' E 002°31'612.6
2018-Jun-12 22:00N 51°37' E 002°24'612.6
2018-Jun-12 21:29N 51°32' E 002°17'612.0
2018-Jun-12 21:00N 51°28' E 002°10'1111.1
2018-Jun-12 20:00N 51°20' E 001°59'510.5
2018-Jun-12 19:30N 51°16' E 001°53'510.1
2018-Jun-12 19:00N 51°12' E 001°48'5 9.4
2018-Jun-12 18:30N 51°09' E 001°43'5 9.1
2018-Jun-12 18:00N 51°05' E 001°40'5 9.2
2018-Jun-12 17:30N 51°01' E 001°35'4 8.9
2018-Jun-12 17:00N 50°58' E 001°30'  
Track history (hours):
 
Tides and Currents Weather Stations Pressure Air Temp Water Temp Dewpoint Dewpoint Depression Visibility Wind Speed Wind Dir Waves Ship Positions

Red Moon

Last reported at 2018-Jun-22 16:51 UTC. Time now 2018-Jun-23 19:53 UTC.
Position N 46°50' W 003°11'.

Length 274 m; draft 9.3 m.

Type: Tanker. MMSI: 636016129.

Date/timePositionNaut miles runAvg speedWind from/ knotsBaromVisibWave heightAir tempDewpointWater temp
2018-Jun-22 16:51N 46°50' W 003°11'1115.2
2018-Jun-22 16:09N 46°55' W 002°57'215.8
2018-Jun-22 16:00N 46°56' W 002°54'815.2
2018-Jun-22 15:30N 46°59' W 002°44'815.3
2018-Jun-22 15:00N 47°02' W 002°34'815.3
2018-Jun-22 14:30N 47°06' W 002°24'4 8.9
2018-Jun-22 14:00N 47°09' W 002°20'713.6
2018-Jun-22 13:30N 47°15' W 002°14'510.9
2018-Jun-22 13:00N 47°18' W 002°07'1 2.0
2018-Jun-22 12:29N 47°18' W 002°06'0 0.0
2018-Jun-22 11:56N 47°18' W 002°06'0 0.0
2018-Jun-22 11:29N 47°18' W 002°06'0 0.0
2018-Jun-22 10:56N 47°18' W 002°06'0 0.0
2018-Jun-22 10:26N 47°18' W 002°06'0 0.0
2018-Jun-22 09:59N 47°18' W 002°06'0 0.0
2018-Jun-22 08:47N 47°18' W 002°06'0 0.0
2018-Jun-22 08:29N 47°18' W 002°06'0 0.0
2018-Jun-22 07:59N 47°18' W 002°06'0 0.0
2018-Jun-22 07:29N 47°18' W 002°06'0 0.0
2018-Jun-22 06:59N 47°18' W 002°06'0 0.0
2018-Jun-22 06:29N 47°18' W 002°06'0 0.0
2018-Jun-22 05:59N 47°18' W 002°06'0 0.0
2018-Jun-22 05:29N 47°18' W 002°06'0 0.0
2018-Jun-22 04:56N 47°18' W 002°06'0 0.0
2018-Jun-22 04:29N 47°18' W 002°06'0 0.0
2018-Jun-22 03:59N 47°18' W 002°06'0 0.0
2018-Jun-22 03:26N 47°18' W 002°06'0 0.0
2018-Jun-22 02:56N 47°18' W 002°06'0 0.0
2018-Jun-22 02:29N 47°18' W 002°06'0 0.0
2018-Jun-22 01:59N 47°18' W 002°06'0 0.0
2018-Jun-22 01:29N 47°18' W 002°06'0 0.0
2018-Jun-22 00:59N 47°18' W 002°06'0 0.0
2018-Jun-22 00:29N 47°18' W 002°06'0 0.0
2018-Jun-21 23:59N 47°18' W 002°06'0 0.0
2018-Jun-21 23:29N 47°18' W 002°06'0 0.0
2018-Jun-21 22:53N 47°18' W 002°06'0 0.0
2018-Jun-21 22:29N 47°18' W 002°06'0 0.0
2018-Jun-21 21:59N 47°18' W 002°06'0 0.0
2018-Jun-21 21:29N 47°18' W 002°06'0 0.0
2018-Jun-21 20:59N 47°18' W 002°06'0 0.0
2018-Jun-21 20:29N 47°18' W 002°06'0 0.0
2018-Jun-21 19:59N 47°18' W 002°06'0 0.0
2018-Jun-21 19:29N 47°18' W 002°06'0 0.0
2018-Jun-21 18:59N 47°18' W 002°06'0 0.0
2018-Jun-21 18:29N 47°18' W 002°06'0 0.0
2018-Jun-21 17:59N 47°18' W 002°06'0 0.0
2018-Jun-21 17:29N 47°18' W 002°06'0 0.0
2018-Jun-21 16:59N 47°18' W 002°06'0 0.0
2018-Jun-21 16:29N 47°18' W 002°06'0 0.0
2018-Jun-21 15:59N 47°18' W 002°06'0 0.0
2018-Jun-21 15:29N 47°18' W 002°06'0 0.0
2018-Jun-21 14:59N 47°18' W 002°06'0 0.0
2018-Jun-21 14:26N 47°18' W 002°06'0 0.0
2018-Jun-21 13:59N 47°18' W 002°06'0 0.0
2018-Jun-21 13:29N 47°18' W 002°06'0 0.0
2018-Jun-21 12:56N 47°18' W 002°06'0 0.0
2018-Jun-21 12:29N 47°18' W 002°06'0 0.0
2018-Jun-21 11:56N 47°18' W 002°06'0 0.0
2018-Jun-21 11:29N 47°18' W 002°06'0 0.0
2018-Jun-21 10:59N 47°18' W 002°06'0 0.0
2018-Jun-21 10:29N 47°18' W 002°06'0 0.0
2018-Jun-21 10:00N 47°18' W 002°06'1 1.0
2018-Jun-21 09:30N 47°18' W 002°07'4 7.0
2018-Jun-21 09:00N 47°16' W 002°11'612.7
2018-Jun-21 08:30N 47°12' W 002°17'611.6
2018-Jun-21 08:00N 47°07' W 002°22'3 6.9
2018-Jun-21 07:30N 47°07' W 002°27'1 2.5
2018-Jun-21 06:59N 47°07' W 002°29'0 0.0
2018-Jun-21 06:29N 47°07' W 002°29'0 0.1
2018-Jun-21 05:59N 47°07' W 002°29'0 0.1
2018-Jun-21 05:29N 47°07' W 002°29'0 0.0
2018-Jun-21 05:00N 47°07' W 002°29'0 0.1
2018-Jun-21 04:29N 47°07' W 002°29'0 0.1
2018-Jun-21 04:00N 47°07' W 002°29'0 0.0
2018-Jun-21 03:30N 47°07' W 002°29'0 0.0
2018-Jun-21 02:59N 47°07' W 002°29'0 0.0
2018-Jun-21 02:30N 47°07' W 002°29'0 0.0
2018-Jun-21 01:59N 47°07' W 002°29'0 0.0
2018-Jun-21 01:30N 47°07' W 002°29'0 0.0
2018-Jun-21 01:00N 47°07' W 002°29'0 0.0
2018-Jun-21 00:29N 47°07' W 002°29'0 0.0
2018-Jun-20 23:59N 47°07' W 002°29'0 0.1
2018-Jun-20 23:30N 47°07' W 002°29'0 0.1
2018-Jun-20 23:00N 47°07' W 002°29'0 0.2
2018-Jun-20 22:30N 47°07' W 002°29'0 0.0
2018-Jun-20 21:59N 47°07' W 002°29'0 0.1
2018-Jun-20 21:29N 47°07' W 002°29'0 0.1
2018-Jun-20 20:57N 47°07' W 002°29'0 0.1
2018-Jun-20 20:29N 47°07' W 002°29'0 0.1
2018-Jun-20 19:59N 47°07' W 002°29'0 0.1
2018-Jun-20 19:30N 47°07' W 002°29'0 0.0
2018-Jun-20 18:59N 47°07' W 002°29'0 0.0
2018-Jun-20 18:29N 47°07' W 002°29'0 0.1
2018-Jun-20 18:00N 47°07' W 002°29'0 0.0
2018-Jun-20 17:30N 47°07' W 002°29'0 0.0
2018-Jun-20 16:54N 47°07' W 002°29'0 0.3
2018-Jun-20 16:23N 47°07' W 002°29'0 0.3
2018-Jun-20 15:59N 47°07' W 002°29'0 0.1
2018-Jun-20 14:47N 47°07' W 002°29'0 0.1
2018-Jun-20 14:30N 47°07' W 002°29'0 0.0
2018-Jun-20 14:00N 47°07' W 002°29'0 0.0
2018-Jun-20 13:30N 47°07' W 002°29'0 0.0
2018-Jun-20 12:56N 47°07' W 002°29'0 0.0
2018-Jun-20 12:26N 47°07' W 002°29'0 0.1
2018-Jun-20 11:59N 47°07' W 002°29'0 0.1
2018-Jun-20 11:29N 47°07' W 002°29'0 0.0
2018-Jun-20 11:00N 47°07' W 002°29'0 0.1
2018-Jun-20 10:30N 47°07' W 002°29'0 0.1
2018-Jun-20 09:59N 47°07' W 002°29'0 0.1
2018-Jun-20 09:29N 47°07' W 002°29'0 0.0
2018-Jun-20 09:00N 47°07' W 002°29'0 0.0
2018-Jun-20 08:29N 47°07' W 002°29'0 0.1
2018-Jun-20 08:00N 47°07' W 002°29'0 0.2
2018-Jun-20 07:29N 47°07' W 002°29'0 0.1
2018-Jun-20 06:59N 47°07' W 002°29'0 0.1
2018-Jun-20 06:29N 47°07' W 002°29'0 0.0
2018-Jun-20 06:00N 47°07' W 002°29'0 0.0
2018-Jun-20 05:29N 47°07' W 002°29'0 0.1
2018-Jun-20 04:57N 47°07' W 002°29'0 0.2
2018-Jun-20 04:29N 47°07' W 002°29'0 0.3
2018-Jun-20 03:56N 47°07' W 002°29'0 0.2
2018-Jun-20 03:29N 47°07' W 002°29'0 0.1
2018-Jun-20 02:59N 47°07' W 002°29'0 0.1
2018-Jun-20 02:30N 47°07' W 002°29'0 0.0
2018-Jun-20 01:59N 47°07' W 002°29'0 0.0
2018-Jun-20 01:30N 47°07' W 002°29'0 0.0
2018-Jun-20 01:00N 47°07' W 002°29'0 0.0
2018-Jun-20 00:29N 47°07' W 002°29'0 0.0
2018-Jun-20 00:00N 47°07' W 002°29'0 0.1
2018-Jun-19 23:27N 47°07' W 002°29'0 0.0
2018-Jun-19 23:00N 47°07' W 002°29'0 0.0
2018-Jun-19 22:30N 47°07' W 002°29'0 0.1
2018-Jun-19 21:59N 47°07' W 002°29'0 0.2
2018-Jun-19 21:30N 47°07' W 002°29'0 0.0
2018-Jun-19 20:56N 47°07' W 002°29'0 0.0
2018-Jun-19 20:26N 47°07' W 002°29'0 0.0
2018-Jun-19 19:59N 47°07' W 002°29'0 0.2
2018-Jun-19 19:30N 47°07' W 002°29'0 0.2
2018-Jun-19 18:56N 47°07' W 002°29'0 0.1
2018-Jun-19 18:29N 47°07' W 002°29'0 0.1
2018-Jun-19 18:00N 47°07' W 002°29'0 0.0
2018-Jun-19 17:30N 47°07' W 002°29'0 0.0
2018-Jun-19 17:00N 47°07' W 002°29'0 0.0
2018-Jun-19 16:29N 47°07' W 002°29'0 0.0
2018-Jun-19 16:00N 47°07' W 002°29'0 0.1
2018-Jun-19 15:24N 47°07' W 002°29'0 0.4
2018-Jun-19 14:59N 47°07' W 002°29'0 0.1
2018-Jun-19 14:27N 47°07' W 002°29'0 0.1
2018-Jun-19 13:59N 47°07' W 002°29'0 0.0
2018-Jun-19 13:26N 47°07' W 002°29'0 0.0
2018-Jun-19 13:00N 47°07' W 002°29'0 0.0
2018-Jun-19 12:29N 47°07' W 002°29'0 0.0
2018-Jun-19 11:59N 47°07' W 002°29'0 0.0
2018-Jun-19 11:30N 47°07' W 002°29'0 0.0
2018-Jun-19 11:00N 47°07' W 002°29'0 0.1
2018-Jun-19 10:29N 47°07' W 002°29'0 0.2
2018-Jun-19 10:00N 47°07' W 002°29'0 0.1
2018-Jun-19 09:30N 47°07' W 002°29'0 0.1
2018-Jun-19 08:59N 47°07' W 002°29'0 0.0
2018-Jun-19 08:29N 47°07' W 002°29'0 0.1
2018-Jun-19 07:59N 47°07' W 002°29'0 0.1
2018-Jun-19 07:29N 47°07' W 002°29'0 0.1
2018-Jun-19 06:59N 47°07' W 002°29'0 0.1
2018-Jun-19 06:29N 47°07' W 002°29'0 0.1
2018-Jun-19 05:53N 47°07' W 002°29'0 0.1
2018-Jun-19 05:30N 47°07' W 002°29'0 0.0
2018-Jun-19 04:59N 47°07' W 002°29'0 0.1
2018-Jun-19 04:29N 47°07' W 002°29'0 0.1
2018-Jun-19 03:59N 47°07' W 002°29'0 0.2
2018-Jun-19 03:29N 47°07' W 002°29'0 0.4
2018-Jun-19 02:59N 47°07' W 002°29'0 0.2
2018-Jun-19 02:29N 47°07' W 002°29'0 0.1
2018-Jun-19 01:59N 47°07' W 002°29'0 0.0
2018-Jun-19 01:29N 47°07' W 002°29'0 0.1
2018-Jun-19 00:56N 47°07' W 002°29'0 0.0
2018-Jun-19 00:29N 47°07' W 002°29'0 0.0
2018-Jun-18 23:59N 47°07' W 002°29'0 0.0
2018-Jun-18 23:29N 47°07' W 002°29'0 0.0
2018-Jun-18 22:57N 47°07' W 002°29'0 0.0
2018-Jun-18 22:29N 47°07' W 002°29'0 0.1
2018-Jun-18 21:59N 47°07' W 002°29'0 0.1
2018-Jun-18 21:30N 47°07' W 002°29'0 0.1
2018-Jun-18 20:59N 47°07' W 002°29'0 0.2
2018-Jun-18 20:27N 47°07' W 002°29'0 0.0
2018-Jun-18 20:00N 47°07' W 002°29'0 0.1
2018-Jun-18 19:30N 47°07' W 002°29'0 0.1
2018-Jun-18 19:00N 47°07' W 002°29'0 0.1
2018-Jun-18 18:30N 47°07' W 002°29'0 0.0
2018-Jun-18 18:00N 47°07' W 002°29'0 0.1
2018-Jun-18 17:30N 47°07' W 002°29'0 0.0
2018-Jun-18 17:00N 47°07' W 002°29'0 0.1
2018-Jun-18 16:30N 47°07' W 002°29'0 0.0
2018-Jun-18 16:00N 47°07' W 002°29'0 0.0
2018-Jun-18 15:30N 47°07' W 002°29'0 0.0
2018-Jun-18 14:59N 47°07' W 002°29'0 0.1
2018-Jun-18 14:29N 47°07' W 002°29'0 0.4
2018-Jun-18 13:59N 47°07' W 002°29'0 0.2
2018-Jun-18 13:20N 47°07' W 002°29'0 0.1
2018-Jun-18 12:56N 47°07' W 002°29'0 0.1
2018-Jun-18 12:29N 47°07' W 002°29'0 0.0
2018-Jun-18 12:00N 47°07' W 002°29'0 0.1
2018-Jun-18 11:21N 47°07' W 002°29'0 0.1
2018-Jun-18 10:59N 47°07' W 002°29'0 0.0
2018-Jun-18 10:27N 47°07' W 002°29'0 0.0
2018-Jun-18 10:00N 47°07' W 002°29'0 0.0
2018-Jun-18 09:29N 47°07' W 002°29'0 0.1
2018-Jun-18 08:59N 47°07' W 002°29'0 0.1
2018-Jun-18 08:30N 47°07' W 002°29'0 0.2
2018-Jun-18 08:00N 47°07' W 002°29'0 0.1
2018-Jun-18 07:29N 47°07' W 002°29'0 0.1
2018-Jun-18 07:00N 47°07' W 002°29'0 0.1
2018-Jun-18 06:29N 47°07' W 002°29'0 0.1
2018-Jun-18 06:00N 47°07' W 002°29'0 0.0
2018-Jun-18 05:29N 47°07' W 002°29'0 0.1
2018-Jun-18 04:50N 47°07' W 002°29'0 0.0
2018-Jun-18 04:27N 47°07' W 002°29'0 0.1
2018-Jun-18 04:00N 47°07' W 002°29'0 0.0
2018-Jun-18 03:27N 47°07' W 002°29'0 0.0
2018-Jun-18 03:00N 47°07' W 002°29'0 0.1
2018-Jun-18 02:26N 47°07' W 002°29'0 0.1
2018-Jun-18 01:59N 47°07' W 002°29'0 0.4
2018-Jun-18 01:29N 47°07' W 002°29'0 0.2
2018-Jun-18 00:59N 47°07' W 002°29'0 0.1
2018-Jun-18 00:29N 47°07' W 002°29'0 0.1
2018-Jun-17 23:59N 47°07' W 002°29'0 0.0
2018-Jun-17 23:29N 47°07' W 002°29'0 0.0
2018-Jun-17 22:59N 47°07' W 002°29'0 0.2
2018-Jun-17 22:30N 47°07' W 002°29'1 1.1
2018-Jun-17 22:01N 47°06' W 002°29'1 2.8
2018-Jun-17 21:31N 47°05' W 002°29'2 3.4
2018-Jun-17 21:00N 47°03' W 002°30'510.1
2018-Jun-17 20:31N 47°00' W 002°35'612.0
2018-Jun-17 20:01N 46°57' W 002°43'812.2
2018-Jun-17 19:21N 46°54' W 002°54'412.0
2018-Jun-17 19:00N 46°52' W 002°59'1012.2
2018-Jun-17 18:12N 46°49' W 003°12'412.6
2018-Jun-17 17:53N 46°49' W 003°18'712.8
2018-Jun-17 17:18N 46°49' W 003°29'412.9
2018-Jun-17 17:00N 46°50' W 003°35'712.8
2018-Jun-17 16:29N 46°50' W 003°44'712.5
2018-Jun-17 15:58N 46°51' W 003°54'1212.7
2018-Jun-17 15:03N 46°52' W 004°11'113.1
2018-Jun-17 15:00N 46°52' W 004°12'2912.3
2018-Jun-17 12:41N 46°56' W 004°53'121 9.8
2018-Jun-17 00:19N 48°51' W 005°49'1812.0
2018-Jun-16 22:49N 49°02' W 005°27'410.4
2018-Jun-16 22:23N 49°04' W 005°21'14 8.1
2018-Jun-16 20:43N 49°11' W 005°04'24 9.6
2018-Jun-16 18:15N 49°23' W 004°32'2 9.9
2018-Jun-16 18:00N 49°24' W 004°29'1110.5
2018-Jun-16 16:59N 49°30' W 004°15'611.3
2018-Jun-16 16:29N 49°32' W 004°07'611.9
2018-Jun-16 16:00N 49°35' W 003°59'612.6
2018-Jun-16 15:29N 49°39' W 003°51'612.8
2018-Jun-16 15:00N 49°43' W 003°44'713.4
2018-Jun-16 14:30N 49°46' W 003°35'713.0
2018-Jun-16 14:00N 49°49' W 003°26'612.7
2018-Jun-16 13:30N 49°53' W 003°18'612.4
2018-Jun-16 13:00N 49°55' W 003°09'612.0
2018-Jun-16 12:30N 49°58' W 003°00'611.3
2018-Jun-16 12:00N 49°59' W 002°52'510.8
2018-Jun-16 11:30N 50°01' W 002°44'510.3
2018-Jun-16 11:00N 50°02' W 002°36'5 9.4
2018-Jun-16 10:27N 50°04' W 002°28'21 8.4
2018-Jun-16 07:57N 50°09' W 001°57'4 9.4
2018-Jun-16 07:30N 50°10' W 001°50'1111.0
2018-Jun-16 06:30N 50°13' W 001°34'913.0
2018-Jun-16 05:49N 50°16' W 001°20'1715.2
2018-Jun-16 04:41N 50°20' W 000°54'315.8
2018-Jun-16 04:30N 50°21' W 000°50'815.6
2018-Jun-16 04:00N 50°23' W 000°38'1015.2
2018-Jun-16 03:21N 50°26' W 000°23'814.4
2018-Jun-16 02:47N 50°28' W 000°11'614.0
2018-Jun-16 02:23N 50°29' W 000°02'613.7
2018-Jun-16 01:56N 50°30' E 000°07'613.0
2018-Jun-16 01:30N 50°33' E 000°15'612.7
2018-Jun-16 01:00N 50°34' E 000°25'612.2
2018-Jun-16 00:30N 50°36' E 000°34'611.7
2018-Jun-16 00:00N 50°39' E 000°42'611.5
2018-Jun-15 23:31N 50°42' E 000°50'510.8
2018-Jun-15 23:01N 50°46' E 000°56'510.9
2018-Jun-15 22:31N 50°50' E 001°02'611.4
2018-Jun-15 22:01N 50°54' E 001°08'612.7
2018-Jun-15 21:31N 50°58' E 001°15'714.1
2018-Jun-15 21:00N 51°03' E 001°24'715.0
2018-Jun-15 20:31N 51°07' E 001°34'714.7
2018-Jun-15 20:01N 51°12' E 001°42'713.7
2018-Jun-15 19:30N 51°18' E 001°48'713.3
2018-Jun-15 19:00N 51°23' E 001°54'713.2
2018-Jun-15 18:30N 51°29' E 001°60'612.8
2018-Jun-15 18:00N 51°34' E 002°06'612.5
2018-Jun-15 17:30N 51°38' E 002°13'612.2
2018-Jun-15 17:00N 51°43' E 002°20'611.7
2018-Jun-15 16:30N 51°47' E 002°26'611.5
2018-Jun-15 16:00N 51°51' E 002°32'611.1
2018-Jun-15 15:30N 51°56' E 002°38'510.6
2018-Jun-15 15:00N 51°59' E 002°44'510.4
2018-Jun-15 14:30N 52°02' E 002°51'611.3
2018-Jun-15 14:00N 52°03' E 003°00'611.5
2018-Jun-15 13:30N 52°04' E 003°09'611.9
2018-Jun-15 13:00N 52°04' E 003°19'611.9
2018-Jun-15 12:30N 52°04' E 003°29'713.5
2018-Jun-15 12:00N 52°04' E 003°40'713.7
2018-Jun-15 11:30N 52°02' E 003°51'510.3
2018-Jun-15 11:00N 52°01' E 003°59'510.2
2018-Jun-15 10:30N 51°58' E 004°05'1 1.3
2018-Jun-15 09:59N 51°58' E 004°04'0 0.0
2018-Jun-15 09:29N 51°58' E 004°04'0 0.0
2018-Jun-15 08:59N 51°58' E 004°04'0 0.0
2018-Jun-15 08:29N 51°58' E 004°04'0 0.0
2018-Jun-15 07:59N 51°58' E 004°04'0 0.0
2018-Jun-15 07:29N 51°58' E 004°04'0 0.0
2018-Jun-15 06:59N 51°58' E 004°04'0 0.0
2018-Jun-15 06:29N 51°58' E 004°04'0 0.0
2018-Jun-15 05:59N 51°58' E 004°04'0 0.0
2018-Jun-15 05:29N 51°58' E 004°04'0 0.0
2018-Jun-15 04:59N 51°58' E 004°04'0 0.0
2018-Jun-15 04:29N 51°58' E 004°04'0 0.0
2018-Jun-15 03:59N 51°58' E 004°04'0 0.0
2018-Jun-15 03:29N 51°58' E 004°04'0 0.0
2018-Jun-15 02:59N 51°58' E 004°04'0 0.0
2018-Jun-15 02:29N 51°58' E 004°04'0 0.0
2018-Jun-15 01:59N 51°58' E 004°04'0 0.0
2018-Jun-15 01:29N 51°58' E 004°04'0 0.0
2018-Jun-15 00:59N 51°58' E 004°04'0 0.0
2018-Jun-15 00:29N 51°58' E 004°04'0 0.0
2018-Jun-14 23:59N 51°58' E 004°04'0 0.0
2018-Jun-14 23:29N 51°58' E 004°04'0 0.0
2018-Jun-14 22:59N 51°58' E 004°04'0 0.0
2018-Jun-14 22:29N 51°58' E 004°04'0 0.0
2018-Jun-14 21:59N 51°58' E 004°04'0 0.0
2018-Jun-14 21:29N 51°58' E 004°04'0 0.0
2018-Jun-14 20:59N 51°58' E 004°04'0 0.0
2018-Jun-14 20:29N 51°58' E 004°04'0 0.0
2018-Jun-14 19:59N 51°58' E 004°04'0 0.0
2018-Jun-14 19:29N 51°58' E 004°04'0 0.0
2018-Jun-14 18:59N 51°58' E 004°04'0 0.0
2018-Jun-14 18:29N 51°58' E 004°04'0 0.0
2018-Jun-14 17:59N 51°58' E 004°04'0 0.0
2018-Jun-14 17:29N 51°58' E 004°04'0 0.0
2018-Jun-14 16:59N 51°58' E 004°04'0 0.0
2018-Jun-14 16:30N 51°58' E 004°04'1 1.2
2018-Jun-14 16:01N 51°58' E 004°05'2 3.3
2018-Jun-14 15:30N 51°58' E 004°08'3 5.1
2018-Jun-14 15:01N 51°56' E 004°11'1 2.5
2018-Jun-14 14:30N 51°55' E 004°12'0 0.0
2018-Jun-14 14:00N 51°55' E 004°12'0 0.0
2018-Jun-14 13:30N 51°55' E 004°12'0 0.0
2018-Jun-14 12:57N 51°55' E 004°12'0 0.0
2018-Jun-14 12:27N 51°55' E 004°12'0 0.0
2018-Jun-14 12:00N 51°55' E 004°12'0 0.0
2018-Jun-14 11:30N 51°55' E 004°12'0 0.0
2018-Jun-14 11:00N 51°55' E 004°12'0 0.0
2018-Jun-14 10:30N 51°55' E 004°12'0 0.0
2018-Jun-14 09:57N 51°55' E 004°12'0 0.0
2018-Jun-14 09:27N 51°55' E 004°12'0 0.0
2018-Jun-14 08:57N 51°55' E 004°12'0 0.0
2018-Jun-14 08:27N 51°55' E 004°12'0 0.0
2018-Jun-14 08:00N 51°55' E 004°12'0 0.0
2018-Jun-14 07:30N 51°55' E 004°12'0 0.0
2018-Jun-14 07:00N 51°55' E 004°12'0 0.0
2018-Jun-14 06:30N 51°55' E 004°12'0 0.0
2018-Jun-14 05:57N 51°55' E 004°12'0 0.0
2018-Jun-14 05:27N 51°55' E 004°12'0 0.0
2018-Jun-14 05:00N 51°55' E 004°12'0 0.0
2018-Jun-14 04:30N 51°55' E 004°12'0 0.0
2018-Jun-14 04:00N 51°55' E 004°12'0 0.0
2018-Jun-14 03:30N 51°55' E 004°12'0 0.0
2018-Jun-14 03:00N 51°55' E 004°12'0 0.0
2018-Jun-14 02:24N 51°55' E 004°12'0 0.0
2018-Jun-14 02:00N 51°55' E 004°12'0 0.0
2018-Jun-14 01:30N 51°55' E 004°12'0 0.0
2018-Jun-14 01:00N 51°55' E 004°12'0 0.0
2018-Jun-14 00:27N 51°55' E 004°12'0 0.0
2018-Jun-14 00:00N 51°55' E 004°12'0 0.0
2018-Jun-13 23:30N 51°55' E 004°12'0 0.0
2018-Jun-13 23:00N 51°55' E 004°12'0 0.0
2018-Jun-13 22:30N 51°55' E 004°12'0 0.0
2018-Jun-13 21:58N 51°55' E 004°12'0 0.0
2018-Jun-13 21:27N 51°55' E 004°12'0 0.0
2018-Jun-13 21:00N 51°55' E 004°12'0 0.0
2018-Jun-13 20:24N 51°55' E 004°12'0 0.0
2018-Jun-13 20:00N 51°55' E 004°12'0 0.0
2018-Jun-13 19:30N 51°55' E 004°12'0 0.0
2018-Jun-13 19:00N 51°55' E 004°12'0 0.0
2018-Jun-13 18:30N 51°55' E 004°12'0 0.0
2018-Jun-13 18:00N 51°55' E 004°12'0 0.0
2018-Jun-13 17:30N 51°55' E 004°12'0 0.0
2018-Jun-13 17:00N 51°55' E 004°12'0 0.0
2018-Jun-13 16:30N 51°55' E 004°12'0 0.0
2018-Jun-13 15:57N 51°55' E 004°12'0 0.0
2018-Jun-13 15:30N 51°55' E 004°12'0 0.0
2018-Jun-13 15:00N 51°55' E 004°12'0 0.0
2018-Jun-13 14:27N 51°55' E 004°12'0 0.0
2018-Jun-13 13:57N 51°55' E 004°12'0 0.0
2018-Jun-13 13:27N 51°55' E 004°12'0 0.0
2018-Jun-13 12:51N 51°55' E 004°12'0 0.0
2018-Jun-13 12:27N 51°55' E 004°12'0 0.0
2018-Jun-13 12:00N 51°55' E 004°12'0 0.0
2018-Jun-13 11:30N 51°55' E 004°12'0 0.0
2018-Jun-13 11:00N 51°55' E 004°12'0 0.0
2018-Jun-13 10:30N 51°55' E 004°12'0 0.0
2018-Jun-13 10:00N 51°55' E 004°12'0 0.0
2018-Jun-13 09:24N 51°55' E 004°12'0 0.0
2018-Jun-13 09:00N 51°55' E 004°12'0 0.0
2018-Jun-13 08:21N 51°55' E 004°12'0 0.0
2018-Jun-13 07:59N 51°55' E 004°12'0 0.0
2018-Jun-13 07:28N 51°55' E 004°12'0 0.0
2018-Jun-13 07:00N 51°55' E 004°12'0 0.9
2018-Jun-13 06:30N 51°56' E 004°12'2 4.4
2018-Jun-13 06:00N 51°57' E 004°09'3 5.8
2018-Jun-13 05:30N 51°59' E 004°05'3 6.4
2018-Jun-13 05:00N 51°60' E 004°00'510.3
2018-Jun-13 04:30N 52°02' E 003°53'510.5
2018-Jun-13 04:00N 52°01' E 003°44'3 6.6
2018-Jun-13 03:30N 52°01' E 003°39'4 7.3
2018-Jun-13 03:00N 51°58' E 003°35'4 7.1
2018-Jun-13 02:30N 51°57' E 003°30'4 7.3
2018-Jun-13 01:59N 51°56' E 003°24'5 9.2
2018-Jun-13 01:26N 51°55' E 003°16'4 9.2
2018-Jun-13 01:00N 51°54' E 003°10'5 9.4
2018-Jun-13 00:28N 51°52' E 003°02'810.9
2018-Jun-12 23:47N 51°49' E 002°51'911.3
2018-Jun-12 23:00N 51°46' E 002°38'611.4
2018-Jun-12 22:30N 51°42' E 002°31'612.6
2018-Jun-12 22:00N 51°37' E 002°24'612.6
2018-Jun-12 21:29N 51°32' E 002°17'612.0
2018-Jun-12 21:00N 51°28' E 002°10'1111.1
2018-Jun-12 20:00N 51°20' E 001°59'510.5
2018-Jun-12 19:30N 51°16' E 001°53'510.1
2018-Jun-12 19:00N 51°12' E 001°48'5 9.4
2018-Jun-12 18:30N 51°09' E 001°43'5 9.1
2018-Jun-12 18:00N 51°05' E 001°40'5 9.2
2018-Jun-12 17:30N 51°01' E 001°35'4 8.9
2018-Jun-12 17:00N 50°58' E 001°30'  

Dump ship's entire track history